FLI7466 BIAR-EPGD
Flight info
| Callsign | FLI7466 |
|---|---|
| Flight time | 3h 21m |
| Altitude | 35000 |
| Route | M077F350 RETUR DCT 65N010W DCT BARUD/N0439F370 DCT ASRIB DCT REPKU DCT NEMBA DCT PENOR DCT MOTAD N133 DOMAG T240 OGDAV |
| Aircraft | A320/M-SDFGHIJ1RWXY/B1G1L |
Departure
| Time | 2026-04-22 16:43 |
|---|---|
| Airport | Akureyri International Airport (BIAR) |
Arrival
| Time | 2026-04-22 20:04 |
|---|---|
| Airport | Gdańsk Lech Wałęsa Airport (EPGD) |
| Time | Latitude | Longitude | Altitude | Speed | Heading |
|---|---|---|---|---|---|
| 2026-04-22 16:12 | 65.65445 | -18.07493 | 21 ft | 0 kts | 356° |
| 2026-04-22 16:38 | 65.65453 | -18.07494 | 21 ft | 1 kts | 356° |
| 2026-04-22 16:38 | 65.65459 | -18.07483 | 21 ft | 3 kts | 34° |
| 2026-04-22 16:38 | 65.65482 | -18.07412 | 22 ft | 8 kts | 68° |
| 2026-04-22 16:38 | 65.65486 | -18.07247 | 21 ft | 10 kts | 87° |
| 2026-04-22 16:39 | 65.65528 | -18.07179 | 21 ft | 7 kts | 5° |
| 2026-04-22 16:39 | 65.65582 | -18.07190 | 21 ft | 11 kts | 355° |
| 2026-04-22 16:39 | 65.65682 | -18.07211 | 21 ft | 18 kts | 355° |
| 2026-04-22 16:39 | 65.65828 | -18.07235 | 23 ft | 24 kts | 356° |
| 2026-04-22 16:40 | 65.66014 | -18.07270 | 21 ft | 28 kts | 355° |
| 2026-04-22 16:40 | 65.66211 | -18.07308 | 21 ft | 29 kts | 355° |
| 2026-04-22 16:40 | 65.66589 | -18.07379 | 20 ft | 23 kts | 355° |
| 2026-04-22 16:41 | 65.66740 | -18.07408 | 20 ft | 19 kts | 355° |
| 2026-04-22 16:41 | 65.66820 | -18.07464 | 20 ft | 10 kts | 335° |
| 2026-04-22 16:41 | 65.66826 | -18.07431 | 20 ft | 2 kts | 130° |
| 2026-04-22 16:41 | 65.66798 | -18.07414 | 20 ft | 4 kts | 173° |
| 2026-04-22 16:42 | 65.66772 | -18.07410 | 20 ft | 3 kts | 176° |
| 2026-04-22 16:42 | 65.66664 | -18.07391 | 20 ft | 44 kts | 175° |
| 2026-04-22 16:42 | 65.66116 | -18.07291 | 21 ft | 111 kts | 175° |
| 2026-04-22 16:42 | 65.65159 | -18.07127 | 47 ft | 159 kts | 179° |
| 2026-04-22 16:43 | 65.64065 | -18.06956 | 683 ft | 156 kts | 176° |
| 2026-04-22 16:43 | 65.62986 | -18.06746 | 1336 ft | 155 kts | 175° |
| 2026-04-22 16:43 | 65.61917 | -18.06532 | 1917 ft | 154 kts | 175° |
| 2026-04-22 16:43 | 65.60851 | -18.06510 | 2483 ft | 153 kts | 186° |
| 2026-04-22 16:44 | 65.59803 | -18.06956 | 2985 ft | 153 kts | 197° |
| 2026-04-22 16:44 | 65.58796 | -18.07767 | 3370 ft | 161 kts | 200° |
| 2026-04-22 16:44 | 65.57663 | -18.08720 | 3590 ft | 182 kts | 200° |
| 2026-04-22 16:44 | 65.56444 | -18.09742 | 4035 ft | 188 kts | 199° |
| 2026-04-22 16:45 | 65.55205 | -18.10780 | 4566 ft | 190 kts | 200° |
| 2026-04-22 16:45 | 65.53949 | -18.11832 | 5072 ft | 192 kts | 200° |
| 2026-04-22 16:45 | 65.52671 | -18.12897 | 5550 ft | 197 kts | 200° |
| 2026-04-22 16:45 | 65.51370 | -18.13984 | 6040 ft | 199 kts | 200° |
| 2026-04-22 16:46 | 65.50050 | -18.15035 | 6569 ft | 201 kts | 193° |
| 2026-04-22 16:46 | 65.48674 | -18.14714 | 7042 ft | 204 kts | 154° |
| 2026-04-22 16:46 | 65.47556 | -18.12544 | 7249 ft | 221 kts | 123° |
| 2026-04-22 16:46 | 65.47081 | -18.08906 | 7382 ft | 241 kts | 85° |
| 2026-04-22 16:47 | 65.47503 | -18.04845 | 7637 ft | 263 kts | 70° |
| 2026-04-22 16:47 | 65.48145 | -18.00579 | 8092 ft | 277 kts | 69° |
| 2026-04-22 16:47 | 65.48591 | -17.97675 | 8519 ft | 281 kts | 69° |
| 2026-04-22 16:47 | 65.49507 | -17.91709 | 9477 ft | 287 kts | 69° |
| 2026-04-22 16:48 | 65.50195 | -17.87170 | 10222 ft | 290 kts | 69° |
| 2026-04-22 16:48 | 65.50885 | -17.82579 | 10647 ft | 305 kts | 70° |
| 2026-04-22 16:48 | 65.51629 | -17.77589 | 10833 ft | 328 kts | 70° |
| 2026-04-22 16:48 | 65.52416 | -17.72292 | 11215 ft | 341 kts | 70° |
| 2026-04-22 16:49 | 65.53202 | -17.66853 | 11825 ft | 346 kts | 74° |
| 2026-04-22 16:49 | 65.53632 | -17.61128 | 12472 ft | 350 kts | 86° |
| 2026-04-22 16:49 | 65.53557 | -17.55255 | 13147 ft | 352 kts | 97° |
| 2026-04-22 16:49 | 65.53289 | -17.49359 | 13815 ft | 355 kts | 97° |
| 2026-04-22 16:50 | 65.53015 | -17.43415 | 14471 ft | 357 kts | 97° |
| 2026-04-22 16:50 | 65.52737 | -17.37435 | 15052 ft | 360 kts | 96° |
| 2026-04-22 16:50 | 65.52462 | -17.31496 | 15638 ft | 363 kts | 97° |
| 2026-04-22 16:50 | 65.52180 | -17.25430 | 16246 ft | 365 kts | 96° |
| 2026-04-22 16:51 | 65.51896 | -17.19332 | 16806 ft | 367 kts | 96° |
| 2026-04-22 16:51 | 65.51607 | -17.13192 | 17406 ft | 369 kts | 96° |
| 2026-04-22 16:51 | 65.51314 | -17.07021 | 17977 ft | 372 kts | 96° |
| 2026-04-22 16:51 | 65.51013 | -17.00807 | 18530 ft | 375 kts | 96° |
| 2026-04-22 16:52 | 65.50706 | -16.94550 | 19066 ft | 376 kts | 97° |
| 2026-04-22 16:52 | 65.50402 | -16.88370 | 19608 ft | 377 kts | 97° |
| 2026-04-22 16:52 | 65.50090 | -16.82080 | 20096 ft | 379 kts | 97° |
| 2026-04-22 16:52 | 65.49774 | -16.75750 | 20597 ft | 381 kts | 97° |
| 2026-04-22 16:53 | 65.49457 | -16.69399 | 21108 ft | 383 kts | 97° |
| 2026-04-22 16:53 | 65.49133 | -16.63017 | 21636 ft | 384 kts | 98° |
| 2026-04-22 16:53 | 65.48803 | -16.56615 | 22163 ft | 386 kts | 98° |
| 2026-04-22 16:53 | 65.48467 | -16.50193 | 22681 ft | 387 kts | 98° |
| 2026-04-22 16:54 | 65.48130 | -16.43753 | 23187 ft | 389 kts | 98° |
| 2026-04-22 16:54 | 65.47797 | -16.37374 | 23667 ft | 390 kts | 98° |
| 2026-04-22 16:54 | 65.47455 | -16.30891 | 24117 ft | 392 kts | 98° |
| 2026-04-22 16:54 | 65.47108 | -16.24387 | 24510 ft | 393 kts | 99° |
| 2026-04-22 16:55 | 65.46756 | -16.17856 | 24896 ft | 394 kts | 99° |
| 2026-04-22 16:55 | 65.46401 | -16.11312 | 25278 ft | 395 kts | 99° |
| 2026-04-22 16:55 | 65.46041 | -16.04746 | 25655 ft | 396 kts | 99° |
| 2026-04-22 16:55 | 65.45675 | -15.98170 | 26022 ft | 397 kts | 100° |
| 2026-04-22 16:56 | 65.45305 | -15.91588 | 26377 ft | 398 kts | 100° |
| 2026-04-22 16:56 | 65.44938 | -15.85072 | 26722 ft | 399 kts | 100° |
| 2026-04-22 16:56 | 65.44564 | -15.78451 | 27060 ft | 400 kts | 100° |
| 2026-04-22 16:56 | 65.44187 | -15.71809 | 27397 ft | 402 kts | 100° |
| 2026-04-22 16:57 | 65.43806 | -15.65158 | 27769 ft | 402 kts | 100° |
| 2026-04-22 16:57 | 65.43423 | -15.58511 | 28178 ft | 401 kts | 100° |
| 2026-04-22 16:57 | 65.43037 | -15.51869 | 28518 ft | 402 kts | 100° |
| 2026-04-22 16:57 | 65.42646 | -15.45214 | 28842 ft | 403 kts | 101° |
| 2026-04-22 16:58 | 65.42384 | -15.40800 | 29041 ft | 403 kts | 101° |
| 2026-04-22 16:58 | 65.41854 | -15.31965 | 29428 ft | 404 kts | 101° |
| 2026-04-22 16:58 | 65.41449 | -15.25273 | 29707 ft | 405 kts | 101° |
| 2026-04-22 16:58 | 65.41042 | -15.18563 | 29920 ft | 407 kts | 102° |
| 2026-04-22 16:59 | 65.40633 | -15.11842 | 30209 ft | 408 kts | 101° |
| 2026-04-22 16:59 | 65.40223 | -15.05099 | 30468 ft | 409 kts | 102° |
| 2026-04-22 16:59 | 65.39807 | -14.98344 | 30678 ft | 410 kts | 102° |
| 2026-04-22 16:59 | 65.39387 | -14.91584 | 30910 ft | 410 kts | 102° |
| 2026-04-22 17:00 | 65.38969 | -14.84922 | 31170 ft | 409 kts | 102° |
| 2026-04-22 17:00 | 65.38107 | -14.71461 | 31725 ft | 408 kts | 102° |
| 2026-04-22 17:00 | 65.37668 | -14.64755 | 31981 ft | 407 kts | 102° |
| 2026-04-22 17:01 | 65.37229 | -14.58054 | 32229 ft | 407 kts | 102° |
| 2026-04-22 17:01 | 65.36790 | -14.51360 | 32486 ft | 406 kts | 102° |
| 2026-04-22 17:01 | 65.36350 | -14.44678 | 32753 ft | 406 kts | 102° |
| 2026-04-22 17:01 | 65.35914 | -14.38095 | 33015 ft | 405 kts | 102° |
| 2026-04-22 17:02 | 65.35470 | -14.31428 | 33248 ft | 405 kts | 102° |
| 2026-04-22 17:02 | 65.35024 | -14.24772 | 33502 ft | 404 kts | 103° |
| 2026-04-22 17:02 | 65.34576 | -14.18136 | 33763 ft | 404 kts | 103° |
| 2026-04-22 17:02 | 65.34125 | -14.11510 | 34014 ft | 403 kts | 103° |
| 2026-04-22 17:03 | 65.33673 | -14.04898 | 34292 ft | 402 kts | 103° |
| 2026-04-22 17:03 | 65.33216 | -13.98297 | 34533 ft | 402 kts | 103° |
| 2026-04-22 17:03 | 65.32756 | -13.91703 | 34732 ft | 401 kts | 103° |
| 2026-04-22 17:03 | 65.32300 | -13.85199 | 34889 ft | 402 kts | 103° |
| 2026-04-22 17:04 | 65.31834 | -13.78589 | 35038 ft | 404 kts | 103° |
| 2026-04-22 17:04 | 65.31365 | -13.71965 | 35225 ft | 404 kts | 103° |
| 2026-04-22 17:04 | 65.30895 | -13.65341 | 35401 ft | 404 kts | 103° |
| 2026-04-22 17:04 | 65.30424 | -13.58751 | 35431 ft | 400 kts | 103° |
| 2026-04-22 17:05 | 65.29480 | -13.45681 | 35431 ft | 398 kts | 103° |
| 2026-04-22 17:05 | 65.28518 | -13.32659 | 35433 ft | 398 kts | 103° |
| 2026-04-22 17:06 | 65.27559 | -13.19733 | 35435 ft | 398 kts | 103° |
| 2026-04-22 17:06 | 65.26584 | -13.06733 | 35434 ft | 398 kts | 103° |
| 2026-04-22 17:07 | 65.25596 | -12.93741 | 35432 ft | 398 kts | 104° |
| 2026-04-22 17:07 | 65.24593 | -12.80748 | 35438 ft | 398 kts | 104° |
| 2026-04-22 17:08 | 65.23584 | -12.67855 | 35444 ft | 398 kts | 104° |
| 2026-04-22 17:08 | 65.22556 | -12.54889 | 35444 ft | 398 kts | 104° |
| 2026-04-22 17:09 | 65.21524 | -12.41907 | 35441 ft | 399 kts | 104° |
| 2026-04-22 17:09 | 65.20482 | -12.28944 | 35445 ft | 398 kts | 104° |
| 2026-04-22 17:10 | 65.19435 | -12.16085 | 35450 ft | 398 kts | 104° |
| 2026-04-22 17:10 | 65.18365 | -12.03147 | 35451 ft | 398 kts | 104° |
| 2026-04-22 17:11 | 65.17290 | -11.90219 | 35450 ft | 398 kts | 105° |
| 2026-04-22 17:11 | 65.16195 | -11.77308 | 35451 ft | 398 kts | 105° |
| 2026-04-22 17:12 | 65.15095 | -11.64508 | 35478 ft | 398 kts | 105° |
| 2026-04-22 17:12 | 65.13988 | -11.51641 | 35458 ft | 397 kts | 105° |
| 2026-04-22 17:13 | 65.12873 | -11.38795 | 35466 ft | 397 kts | 105° |
| 2026-04-22 17:13 | 65.11746 | -11.25978 | 35466 ft | 396 kts | 105° |
| 2026-04-22 17:14 | 65.10612 | -11.13264 | 35466 ft | 396 kts | 105° |
| 2026-04-22 17:14 | 65.09459 | -11.00479 | 35468 ft | 396 kts | 106° |
| 2026-04-22 17:15 | 65.08290 | -10.87716 | 35475 ft | 396 kts | 106° |
| 2026-04-22 17:15 | 65.07119 | -10.74956 | 35474 ft | 396 kts | 106° |
| 2026-04-22 17:16 | 65.05947 | -10.62291 | 35458 ft | 396 kts | 106° |
| 2026-04-22 17:16 | 65.04758 | -10.49551 | 35496 ft | 397 kts | 106° |
| 2026-04-22 17:17 | 65.03553 | -10.36798 | 35459 ft | 396 kts | 106° |
| 2026-04-22 17:17 | 65.02340 | -10.24106 | 35458 ft | 395 kts | 106° |
| 2026-04-22 17:18 | 65.01119 | -10.11526 | 35460 ft | 395 kts | 107° |
| 2026-04-22 17:18 | 64.99742 | -9.98986 | 35457 ft | 392 kts | 114° |
| 2026-04-22 17:19 | 64.95188 | -9.75668 | 35481 ft | 390 kts | 117° |
| 2026-04-22 17:20 | 64.90581 | -9.52653 | 35486 ft | 389 kts | 117° |
| 2026-04-22 17:21 | 64.87107 | -9.35403 | 35485 ft | 388 kts | 118° |
| 2026-04-22 17:22 | 64.83632 | -9.18311 | 35476 ft | 388 kts | 118° |
| 2026-04-22 17:23 | 64.80116 | -9.01188 | 35480 ft | 389 kts | 118° |
| 2026-04-22 17:23 | 64.76595 | -8.84178 | 35481 ft | 388 kts | 118° |
| 2026-04-22 17:24 | 64.74234 | -8.72819 | 35479 ft | 387 kts | 118° |
| 2026-04-22 17:24 | 64.71862 | -8.61491 | 35504 ft | 387 kts | 118° |
| 2026-04-22 17:25 | 64.69498 | -8.50279 | 35501 ft | 386 kts | 118° |
| 2026-04-22 17:25 | 64.67116 | -8.39029 | 35497 ft | 386 kts | 118° |
| 2026-04-22 17:26 | 64.64734 | -8.27795 | 35498 ft | 386 kts | 118° |
| 2026-04-22 17:26 | 64.62345 | -8.16600 | 35475 ft | 385 kts | 118° |
| 2026-04-22 17:27 | 64.59955 | -8.05521 | 35476 ft | 385 kts | 119° |
| 2026-04-22 17:27 | 64.57540 | -7.94393 | 35481 ft | 385 kts | 119° |
| 2026-04-22 17:28 | 64.55123 | -7.83278 | 35469 ft | 385 kts | 119° |
| 2026-04-22 17:28 | 64.52701 | -7.72187 | 35485 ft | 385 kts | 119° |
| 2026-04-22 17:29 | 64.50287 | -7.61169 | 35484 ft | 385 kts | 119° |
| 2026-04-22 17:29 | 64.47845 | -7.50093 | 35489 ft | 386 kts | 120° |
| 2026-04-22 17:30 | 64.45393 | -7.39031 | 35492 ft | 386 kts | 120° |
| 2026-04-22 17:30 | 64.42934 | -7.27994 | 35494 ft | 386 kts | 120° |
| 2026-04-22 17:31 | 64.40481 | -7.17047 | 35470 ft | 386 kts | 120° |
| 2026-04-22 17:31 | 64.38000 | -7.06038 | 35474 ft | 387 kts | 120° |
| 2026-04-22 17:32 | 64.35507 | -6.95041 | 35479 ft | 386 kts | 120° |
| 2026-04-22 17:32 | 64.33028 | -6.84136 | 35482 ft | 386 kts | 120° |
| 2026-04-22 17:33 | 64.30525 | -6.73177 | 35488 ft | 386 kts | 120° |
| 2026-04-22 17:33 | 64.28008 | -6.62243 | 35486 ft | 386 kts | 120° |
| 2026-04-22 17:34 | 64.25908 | -6.53195 | 35483 ft | 386 kts | 120° |
| 2026-04-22 17:34 | 64.22971 | -6.40566 | 35478 ft | 385 kts | 120° |
| 2026-04-22 17:35 | 64.20444 | -6.29719 | 35487 ft | 385 kts | 120° |
| 2026-04-22 17:35 | 64.17912 | -6.18897 | 35491 ft | 385 kts | 121° |
| 2026-04-22 17:36 | 64.15799 | -6.09931 | 35491 ft | 385 kts | 121° |
| 2026-04-22 17:36 | 64.12833 | -5.97434 | 35489 ft | 384 kts | 121° |
| 2026-04-22 17:37 | 64.10279 | -5.86697 | 35493 ft | 384 kts | 121° |
| 2026-04-22 17:37 | 64.07722 | -5.75983 | 35489 ft | 383 kts | 121° |
| 2026-04-22 17:38 | 64.05590 | -5.67113 | 35483 ft | 383 kts | 121° |
| 2026-04-22 17:38 | 64.02594 | -5.54735 | 35483 ft | 383 kts | 121° |
| 2026-04-22 17:39 | 64.00444 | -5.45890 | 35451 ft | 384 kts | 121° |
| 2026-04-22 17:40 | 63.96542 | -5.29888 | 35469 ft | 386 kts | 121° |
| 2026-04-22 17:40 | 63.93495 | -5.17477 | 35510 ft | 386 kts | 121° |
| 2026-04-22 17:41 | 63.91296 | -5.08554 | 35514 ft | 386 kts | 121° |
| 2026-04-22 17:41 | 63.88680 | -4.98022 | 35520 ft | 385 kts | 121° |
| 2026-04-22 17:42 | 63.86043 | -4.87435 | 35516 ft | 385 kts | 122° |
| 2026-04-22 17:42 | 63.83401 | -4.76887 | 35516 ft | 385 kts | 122° |
| 2026-04-22 17:43 | 63.80754 | -4.66366 | 35480 ft | 384 kts | 122° |
| 2026-04-22 17:43 | 63.78115 | -4.55928 | 35483 ft | 385 kts | 121° |
| 2026-04-22 17:44 | 63.75440 | -4.45407 | 35488 ft | 386 kts | 122° |
| 2026-04-22 17:44 | 63.72758 | -4.34882 | 35490 ft | 387 kts | 122° |
| 2026-04-22 17:45 | 63.70071 | -4.24372 | 35490 ft | 387 kts | 122° |
| 2026-04-22 17:45 | 63.67389 | -4.13958 | 35519 ft | 386 kts | 122° |
| 2026-04-22 17:46 | 63.64681 | -4.03530 | 35521 ft | 385 kts | 122° |
| 2026-04-22 17:46 | 63.61971 | -3.93130 | 35515 ft | 385 kts | 122° |
| 2026-04-22 17:47 | 63.59260 | -3.82752 | 35483 ft | 385 kts | 122° |
| 2026-04-22 17:47 | 63.56558 | -3.72435 | 35488 ft | 386 kts | 122° |
| 2026-04-22 17:48 | 63.53819 | -3.62055 | 35491 ft | 387 kts | 122° |
| 2026-04-22 17:48 | 63.51073 | -3.51685 | 35494 ft | 387 kts | 122° |
| 2026-04-22 17:49 | 63.48324 | -3.41328 | 35497 ft | 387 kts | 122° |
| 2026-04-22 17:49 | 63.45584 | -3.31059 | 35499 ft | 387 kts | 122° |
| 2026-04-22 17:50 | 63.42810 | -3.20749 | 35506 ft | 387 kts | 122° |
| 2026-04-22 17:50 | 63.40026 | -3.10466 | 35525 ft | 387 kts | 123° |
| 2026-04-22 17:51 | 63.37235 | -3.00213 | 35489 ft | 386 kts | 123° |
| 2026-04-22 17:51 | 63.34467 | -2.90045 | 35486 ft | 386 kts | 123° |
| 2026-04-22 17:52 | 63.31673 | -2.79816 | 35487 ft | 387 kts | 123° |
| 2026-04-22 17:52 | 63.28866 | -2.69601 | 35490 ft | 387 kts | 123° |
| 2026-04-22 17:53 | 63.26048 | -2.59393 | 35494 ft | 388 kts | 123° |
| 2026-04-22 17:53 | 63.23236 | -2.49265 | 35497 ft | 388 kts | 123° |
| 2026-04-22 17:54 | 63.20405 | -2.39084 | 35499 ft | 388 kts | 123° |
| 2026-04-22 17:54 | 63.17567 | -2.28904 | 35499 ft | 388 kts | 123° |
| 2026-04-22 17:55 | 63.14709 | -2.18742 | 35473 ft | 390 kts | 123° |
| 2026-04-22 17:55 | 63.11846 | -2.08625 | 35479 ft | 392 kts | 123° |
| 2026-04-22 17:56 | 63.08949 | -1.98422 | 35521 ft | 392 kts | 123° |
| 2026-04-22 17:56 | 63.06056 | -1.88253 | 35525 ft | 391 kts | 123° |
| 2026-04-22 17:57 | 63.03158 | -1.78147 | 35517 ft | 390 kts | 123° |
| 2026-04-22 17:57 | 63.00258 | -1.68062 | 35518 ft | 390 kts | 124° |
| 2026-04-22 17:58 | 62.97371 | -1.58061 | 35523 ft | 390 kts | 124° |
| 2026-04-22 17:58 | 62.94458 | -1.48005 | 35493 ft | 390 kts | 123° |
| 2026-04-22 17:59 | 62.91525 | -1.37965 | 35486 ft | 392 kts | 124° |
| 2026-04-22 17:59 | 62.88574 | -1.27906 | 35485 ft | 393 kts | 124° |
| 2026-04-22 18:00 | 62.85635 | -1.17890 | 35491 ft | 394 kts | 124° |
| 2026-04-22 18:00 | 62.82667 | -1.07825 | 35492 ft | 394 kts | 124° |
| 2026-04-22 18:01 | 62.79685 | -0.97791 | 35520 ft | 393 kts | 124° |
| 2026-04-22 18:01 | 62.76709 | -0.87789 | 35520 ft | 392 kts | 124° |
| 2026-04-22 18:02 | 62.73753 | -0.77892 | 35523 ft | 392 kts | 124° |
| 2026-04-22 18:02 | 62.70772 | -0.67962 | 35520 ft | 392 kts | 124° |
| 2026-04-22 18:03 | 62.67780 | -0.58048 | 35518 ft | 392 kts | 124° |
| 2026-04-22 18:03 | 62.64797 | -0.48238 | 35518 ft | 391 kts | 124° |
| 2026-04-22 18:04 | 62.61791 | -0.38380 | 35520 ft | 391 kts | 124° |
| 2026-04-22 18:04 | 62.58784 | -0.28553 | 35519 ft | 391 kts | 124° |
| 2026-04-22 18:05 | 62.55775 | -0.18743 | 35517 ft | 391 kts | 125° |
| 2026-04-22 18:05 | 62.52777 | -0.09023 | 35516 ft | 391 kts | 125° |
| 2026-04-22 18:06 | 62.49754 | 0.00749 | 35508 ft | 390 kts | 124° |
| 2026-04-22 18:06 | 62.46761 | 0.10546 | 35504 ft | 391 kts | 124° |
| 2026-04-22 18:07 | 62.43770 | 0.20363 | 35505 ft | 391 kts | 124° |
| 2026-04-22 18:07 | 62.40786 | 0.30094 | 35502 ft | 392 kts | 124° |
| 2026-04-22 18:08 | 62.37773 | 0.39875 | 35508 ft | 392 kts | 124° |
| 2026-04-22 18:08 | 62.34743 | 0.49625 | 35507 ft | 391 kts | 125° |
| 2026-04-22 18:09 | 62.31708 | 0.59346 | 35499 ft | 391 kts | 125° |
| 2026-04-22 18:09 | 62.28694 | 0.68985 | 35500 ft | 391 kts | 125° |
| 2026-04-22 18:10 | 62.25655 | 0.78676 | 35481 ft | 392 kts | 124° |
| 2026-04-22 18:10 | 62.22591 | 0.88389 | 35476 ft | 394 kts | 124° |
| 2026-04-22 18:11 | 62.19513 | 0.98120 | 35502 ft | 394 kts | 125° |
| 2026-04-22 18:11 | 62.16451 | 1.07765 | 35504 ft | 394 kts | 125° |
| 2026-04-22 18:12 | 62.13362 | 1.17456 | 35504 ft | 394 kts | 125° |
| 2026-04-22 18:12 | 62.10259 | 1.27116 | 35502 ft | 394 kts | 125° |
| 2026-04-22 18:13 | 62.07148 | 1.36759 | 35499 ft | 394 kts | 125° |
| 2026-04-22 18:13 | 62.04064 | 1.46327 | 35478 ft | 394 kts | 125° |
| 2026-04-22 18:14 | 62.00930 | 1.55960 | 35475 ft | 397 kts | 125° |
| 2026-04-22 18:14 | 61.97784 | 1.65602 | 35477 ft | 397 kts | 125° |
| 2026-04-22 18:15 | 61.94628 | 1.75237 | 35480 ft | 398 kts | 125° |
| 2026-04-22 18:15 | 61.91465 | 1.84876 | 35487 ft | 398 kts | 125° |
| 2026-04-22 18:16 | 61.88320 | 1.94413 | 35510 ft | 397 kts | 126° |
| 2026-04-22 18:16 | 61.85149 | 2.03963 | 35512 ft | 396 kts | 126° |
| 2026-04-22 18:17 | 61.81973 | 2.13486 | 35516 ft | 396 kts | 126° |
| 2026-04-22 18:17 | 61.78796 | 2.23005 | 35483 ft | 397 kts | 126° |
| 2026-04-22 18:18 | 61.75623 | 2.32477 | 35481 ft | 398 kts | 126° |
| 2026-04-22 18:18 | 61.72412 | 2.42020 | 35483 ft | 399 kts | 126° |
| 2026-04-22 18:19 | 61.69187 | 2.51554 | 35483 ft | 400 kts | 126° |
| 2026-04-22 18:19 | 61.65948 | 2.61079 | 35484 ft | 400 kts | 126° |
| 2026-04-22 18:20 | 61.62726 | 2.70529 | 35484 ft | 400 kts | 126° |
| 2026-04-22 18:20 | 61.59470 | 2.80028 | 35487 ft | 400 kts | 126° |
| 2026-04-22 18:21 | 61.56205 | 2.89495 | 35464 ft | 401 kts | 126° |
| 2026-04-22 18:21 | 61.52922 | 2.98993 | 35467 ft | 403 kts | 126° |
| 2026-04-22 18:22 | 61.49648 | 3.08439 | 35481 ft | 404 kts | 126° |
| 2026-04-22 18:22 | 61.46341 | 3.17937 | 35478 ft | 404 kts | 126° |
| 2026-04-22 18:23 | 61.43014 | 3.27442 | 35483 ft | 405 kts | 126° |
| 2026-04-22 18:23 | 61.39683 | 3.36927 | 35480 ft | 405 kts | 126° |
| 2026-04-22 18:24 | 61.34707 | 3.51037 | 35469 ft | 405 kts | 126° |
| 2026-04-22 18:25 | 61.29666 | 3.65191 | 35464 ft | 407 kts | 126° |
| 2026-04-22 18:25 | 61.26290 | 3.74642 | 35476 ft | 407 kts | 126° |
| 2026-04-22 18:26 | 61.21250 | 3.88708 | 35482 ft | 406 kts | 126° |
| 2026-04-22 18:26 | 61.17860 | 3.98087 | 35475 ft | 407 kts | 126° |
| 2026-04-22 18:27 | 61.14465 | 4.07449 | 35469 ft | 406 kts | 126° |
| 2026-04-22 18:27 | 61.11092 | 4.16741 | 35459 ft | 407 kts | 126° |
| 2026-04-22 18:28 | 61.07681 | 4.26082 | 35447 ft | 407 kts | 126° |
| 2026-04-22 18:28 | 61.04254 | 4.35416 | 35450 ft | 409 kts | 126° |
| 2026-04-22 18:29 | 61.00813 | 4.44764 | 35441 ft | 409 kts | 126° |
| 2026-04-22 18:29 | 60.97395 | 4.54032 | 35437 ft | 409 kts | 126° |
| 2026-04-22 18:30 | 60.92212 | 4.67970 | 35441 ft | 408 kts | 127° |
| 2026-04-22 18:31 | 60.88758 | 4.77226 | 35440 ft | 408 kts | 127° |
| 2026-04-22 18:31 | 60.85325 | 4.86400 | 35423 ft | 408 kts | 126° |
| 2026-04-22 18:32 | 60.81854 | 4.95614 | 35405 ft | 408 kts | 126° |
| 2026-04-22 18:32 | 60.78380 | 5.04813 | 35404 ft | 409 kts | 127° |
| 2026-04-22 18:33 | 60.74889 | 5.13996 | 35398 ft | 409 kts | 127° |
| 2026-04-22 18:33 | 60.71395 | 5.23154 | 35397 ft | 408 kts | 127° |
| 2026-04-22 18:34 | 60.67925 | 5.32245 | 35391 ft | 409 kts | 127° |
| 2026-04-22 18:34 | 60.64417 | 5.41388 | 35393 ft | 409 kts | 127° |
| 2026-04-22 18:35 | 60.60899 | 5.50504 | 35391 ft | 409 kts | 127° |
| 2026-04-22 18:35 | 60.57376 | 5.59605 | 35386 ft | 410 kts | 127° |
| 2026-04-22 18:36 | 60.53871 | 5.68641 | 35387 ft | 410 kts | 127° |
| 2026-04-22 18:36 | 60.50335 | 5.77719 | 35367 ft | 410 kts | 127° |
| 2026-04-22 18:37 | 60.46786 | 5.86780 | 35370 ft | 410 kts | 127° |
| 2026-04-22 18:37 | 60.43231 | 5.95816 | 35365 ft | 410 kts | 127° |
| 2026-04-22 18:38 | 60.39693 | 6.04769 | 35367 ft | 410 kts | 127° |
| 2026-04-22 18:38 | 60.36130 | 6.13762 | 35369 ft | 410 kts | 127° |
| 2026-04-22 18:39 | 60.31008 | 6.27557 | 35373 ft | 409 kts | 121° |
| 2026-04-22 18:39 | 60.27982 | 6.37161 | 35377 ft | 409 kts | 121° |
| 2026-04-22 18:40 | 60.24922 | 6.46803 | 35377 ft | 408 kts | 121° |
| 2026-04-22 18:40 | 60.21848 | 6.56411 | 35378 ft | 408 kts | 121° |
| 2026-04-22 18:41 | 60.18768 | 6.65990 | 35374 ft | 408 kts | 121° |
| 2026-04-22 18:41 | 60.15705 | 6.75517 | 35370 ft | 409 kts | 121° |
| 2026-04-22 18:42 | 60.12617 | 6.85100 | 35368 ft | 409 kts | 121° |
| 2026-04-22 18:42 | 60.09509 | 6.94668 | 35373 ft | 409 kts | 121° |
| 2026-04-22 18:43 | 60.06395 | 7.04211 | 35372 ft | 409 kts | 121° |
| 2026-04-22 18:43 | 60.03296 | 7.13673 | 35373 ft | 409 kts | 121° |
| 2026-04-22 18:44 | 60.00171 | 7.23185 | 35368 ft | 410 kts | 122° |
| 2026-04-22 18:44 | 59.97027 | 7.32705 | 35364 ft | 411 kts | 121° |
| 2026-04-22 18:45 | 59.93875 | 7.42214 | 35369 ft | 411 kts | 121° |
| 2026-04-22 18:45 | 59.90722 | 7.51695 | 35386 ft | 413 kts | 121° |
| 2026-04-22 18:46 | 59.87547 | 7.61215 | 35385 ft | 412 kts | 121° |
| 2026-04-22 18:46 | 59.84369 | 7.70694 | 35376 ft | 411 kts | 122° |
| 2026-04-22 18:47 | 59.81188 | 7.80134 | 35364 ft | 410 kts | 122° |
| 2026-04-22 18:47 | 59.78037 | 7.89455 | 35340 ft | 409 kts | 122° |
| 2026-04-22 18:48 | 59.74864 | 7.98831 | 35333 ft | 410 kts | 122° |
| 2026-04-22 18:48 | 59.71672 | 8.08206 | 35312 ft | 408 kts | 121° |
| 2026-04-22 18:49 | 59.68470 | 8.17559 | 35284 ft | 411 kts | 122° |
| 2026-04-22 18:49 | 59.65266 | 8.26855 | 35294 ft | 412 kts | 122° |
| 2026-04-22 18:50 | 59.62029 | 8.36212 | 35300 ft | 412 kts | 122° |
| 2026-04-22 18:50 | 59.58796 | 8.45560 | 35308 ft | 412 kts | 122° |
| 2026-04-22 18:51 | 59.55548 | 8.54882 | 35325 ft | 411 kts | 121° |
| 2026-04-22 18:51 | 59.52323 | 8.64119 | 35309 ft | 412 kts | 122° |
| 2026-04-22 18:52 | 59.49054 | 8.73457 | 35294 ft | 414 kts | 122° |
| 2026-04-22 18:52 | 59.45783 | 8.82773 | 35300 ft | 413 kts | 122° |
| 2026-04-22 18:53 | 59.42514 | 8.92057 | 35283 ft | 413 kts | 122° |
| 2026-04-22 18:53 | 59.39261 | 9.01245 | 35283 ft | 413 kts | 122° |
| 2026-04-22 18:54 | 59.35970 | 9.10466 | 35276 ft | 412 kts | 122° |
| 2026-04-22 18:54 | 59.32668 | 9.19663 | 35272 ft | 413 kts | 122° |
| 2026-04-22 18:55 | 59.29370 | 9.28859 | 35270 ft | 413 kts | 122° |
| 2026-04-22 18:55 | 59.26085 | 9.37978 | 35267 ft | 413 kts | 122° |
| 2026-04-22 18:56 | 59.22771 | 9.47139 | 35266 ft | 413 kts | 122° |
| 2026-04-22 18:56 | 59.19462 | 9.56290 | 35251 ft | 413 kts | 122° |
| 2026-04-22 18:57 | 59.16172 | 9.65359 | 35252 ft | 412 kts | 122° |
| 2026-04-22 18:57 | 59.12839 | 9.74470 | 35238 ft | 413 kts | 122° |
| 2026-04-22 18:58 | 59.09493 | 9.83559 | 35228 ft | 414 kts | 122° |
| 2026-04-22 18:58 | 59.06136 | 9.92648 | 35241 ft | 414 kts | 122° |
| 2026-04-22 18:59 | 59.02801 | 10.01659 | 35237 ft | 414 kts | 122° |
| 2026-04-22 18:59 | 58.99437 | 10.10719 | 35237 ft | 414 kts | 122° |
| 2026-04-22 19:00 | 58.96071 | 10.19759 | 35237 ft | 413 kts | 122° |
| 2026-04-22 19:00 | 58.92695 | 10.28784 | 35237 ft | 414 kts | 122° |
| 2026-04-22 19:01 | 58.89309 | 10.37808 | 35248 ft | 415 kts | 122° |
| 2026-04-22 19:01 | 58.85936 | 10.46751 | 35245 ft | 415 kts | 122° |
| 2026-04-22 19:02 | 58.82531 | 10.55733 | 35234 ft | 414 kts | 122° |
| 2026-04-22 19:02 | 58.79095 | 10.64670 | 35238 ft | 415 kts | 123° |
| 2026-04-22 19:03 | 58.75530 | 10.73440 | 35232 ft | 416 kts | 124° |
| 2026-04-22 19:03 | 58.71949 | 10.82117 | 35244 ft | 417 kts | 124° |
| 2026-04-22 19:04 | 58.68357 | 10.90871 | 35231 ft | 417 kts | 124° |
| 2026-04-22 19:04 | 58.64769 | 10.99632 | 35238 ft | 417 kts | 124° |
| 2026-04-22 19:05 | 58.61175 | 11.08367 | 35239 ft | 417 kts | 124° |
| 2026-04-22 19:05 | 58.57599 | 11.17041 | 35239 ft | 417 kts | 124° |
| 2026-04-22 19:06 | 58.53993 | 11.25763 | 35241 ft | 417 kts | 124° |
| 2026-04-22 19:07 | 58.48564 | 11.38794 | 35250 ft | 418 kts | 124° |
| 2026-04-22 19:07 | 58.44957 | 11.47405 | 35237 ft | 418 kts | 124° |
| 2026-04-22 19:08 | 58.41332 | 11.56076 | 35239 ft | 418 kts | 124° |
| 2026-04-22 19:08 | 58.37698 | 11.64744 | 35236 ft | 418 kts | 124° |
| 2026-04-22 19:09 | 58.34051 | 11.73370 | 35228 ft | 418 kts | 124° |
| 2026-04-22 19:09 | 58.30421 | 11.81908 | 35225 ft | 418 kts | 124° |
| 2026-04-22 19:10 | 58.26754 | 11.90497 | 35227 ft | 419 kts | 124° |
| 2026-04-22 19:10 | 58.23082 | 11.99104 | 35225 ft | 419 kts | 124° |
| 2026-04-22 19:11 | 58.19402 | 12.07688 | 35224 ft | 419 kts | 124° |
| 2026-04-22 19:11 | 58.15740 | 12.16184 | 35223 ft | 419 kts | 124° |
| 2026-04-22 19:12 | 58.12050 | 12.24720 | 35223 ft | 419 kts | 124° |
| 2026-04-22 19:12 | 58.08354 | 12.33249 | 35228 ft | 419 kts | 124° |
| 2026-04-22 19:13 | 58.04648 | 12.41766 | 35233 ft | 420 kts | 124° |
| 2026-04-22 19:13 | 58.00947 | 12.50235 | 35227 ft | 421 kts | 124° |
| 2026-04-22 19:14 | 57.97227 | 12.58735 | 35213 ft | 420 kts | 124° |
| 2026-04-22 19:14 | 57.93504 | 12.67217 | 35207 ft | 420 kts | 125° |
| 2026-04-22 19:15 | 57.90398 | 12.74240 | 35209 ft | 420 kts | 125° |
| 2026-04-22 19:15 | 57.86044 | 12.84034 | 35202 ft | 420 kts | 125° |
| 2026-04-22 19:16 | 57.82296 | 12.92457 | 35214 ft | 421 kts | 124° |
| 2026-04-22 19:16 | 57.78538 | 13.00877 | 35210 ft | 421 kts | 124° |
| 2026-04-22 19:17 | 57.74775 | 13.09283 | 35207 ft | 421 kts | 124° |
| 2026-04-22 19:17 | 57.71034 | 13.17623 | 35199 ft | 421 kts | 125° |
| 2026-04-22 19:18 | 57.67249 | 13.26001 | 35197 ft | 422 kts | 125° |
| 2026-04-22 19:18 | 57.63460 | 13.34370 | 35203 ft | 422 kts | 125° |
| 2026-04-22 19:19 | 57.59686 | 13.42672 | 35205 ft | 422 kts | 124° |
| 2026-04-22 19:19 | 57.55881 | 13.51025 | 35198 ft | 423 kts | 124° |
| 2026-04-22 19:20 | 57.52062 | 13.59375 | 35185 ft | 424 kts | 125° |
| 2026-04-22 19:20 | 57.48232 | 13.67711 | 35185 ft | 424 kts | 125° |
| 2026-04-22 19:21 | 57.44422 | 13.75978 | 35201 ft | 424 kts | 125° |
| 2026-04-22 19:21 | 57.40586 | 13.84296 | 35209 ft | 424 kts | 125° |
| 2026-04-22 19:22 | 57.36739 | 13.92593 | 35225 ft | 424 kts | 125° |
| 2026-04-22 19:22 | 57.32878 | 14.00864 | 35200 ft | 425 kts | 125° |
| 2026-04-22 19:23 | 57.29044 | 14.09060 | 35168 ft | 424 kts | 125° |
| 2026-04-22 19:23 | 57.25191 | 14.17304 | 35161 ft | 425 kts | 125° |
| 2026-04-22 19:24 | 57.21316 | 14.25536 | 35161 ft | 425 kts | 125° |
| 2026-04-22 19:24 | 57.17460 | 14.33684 | 35163 ft | 424 kts | 125° |
| 2026-04-22 19:25 | 57.13520 | 14.41815 | 35171 ft | 427 kts | 127° |
| 2026-04-22 19:25 | 57.09419 | 14.49745 | 35167 ft | 428 kts | 128° |
| 2026-04-22 19:26 | 57.05281 | 14.57623 | 35167 ft | 428 kts | 128° |
| 2026-04-22 19:26 | 57.01165 | 14.65510 | 35158 ft | 427 kts | 127° |
| 2026-04-22 19:27 | 56.97090 | 14.73351 | 35155 ft | 428 kts | 127° |
| 2026-04-22 19:27 | 56.92986 | 14.81238 | 35129 ft | 428 kts | 127° |
| 2026-04-22 19:28 | 56.88872 | 14.89110 | 35138 ft | 428 kts | 127° |
| 2026-04-22 19:28 | 56.84775 | 14.96910 | 35131 ft | 428 kts | 127° |
| 2026-04-22 19:29 | 56.80639 | 15.04768 | 35140 ft | 430 kts | 127° |
| 2026-04-22 19:29 | 56.76493 | 15.12624 | 35139 ft | 430 kts | 127° |
| 2026-04-22 19:30 | 56.73048 | 15.19134 | 35137 ft | 430 kts | 127° |
| 2026-04-22 19:30 | 56.68212 | 15.28207 | 35148 ft | 429 kts | 128° |
| 2026-04-22 19:31 | 56.64050 | 15.35998 | 35159 ft | 430 kts | 127° |
| 2026-04-22 19:31 | 56.59884 | 15.43790 | 35150 ft | 430 kts | 127° |
| 2026-04-22 19:32 | 56.55705 | 15.51570 | 35135 ft | 431 kts | 127° |
| 2026-04-22 19:32 | 56.51546 | 15.59281 | 35131 ft | 431 kts | 128° |
| 2026-04-22 19:33 | 56.47352 | 15.67023 | 35129 ft | 431 kts | 128° |
| 2026-04-22 19:33 | 56.43149 | 15.74757 | 35149 ft | 431 kts | 127° |
| 2026-04-22 19:34 | 56.38965 | 15.82426 | 35138 ft | 432 kts | 128° |
| 2026-04-22 19:34 | 56.34746 | 15.90141 | 35138 ft | 432 kts | 128° |
| 2026-04-22 19:35 | 56.30520 | 15.97842 | 35142 ft | 432 kts | 128° |
| 2026-04-22 19:35 | 56.27013 | 16.04223 | 35139 ft | 431 kts | 128° |
| 2026-04-22 19:36 | 56.22108 | 16.13129 | 35139 ft | 431 kts | 128° |
| 2026-04-22 19:36 | 56.17883 | 16.20768 | 35160 ft | 431 kts | 128° |
| 2026-04-22 19:37 | 56.13639 | 16.28404 | 35131 ft | 432 kts | 128° |
| 2026-04-22 19:37 | 56.09389 | 16.36039 | 35124 ft | 433 kts | 128° |
| 2026-04-22 19:38 | 56.05152 | 16.43611 | 35119 ft | 433 kts | 128° |
| 2026-04-22 19:38 | 56.00885 | 16.51220 | 35117 ft | 433 kts | 128° |
| 2026-04-22 19:39 | 55.96609 | 16.58814 | 35129 ft | 433 kts | 128° |
| 2026-04-22 19:39 | 55.92341 | 16.66363 | 35128 ft | 432 kts | 128° |
| 2026-04-22 19:40 | 55.88070 | 16.73892 | 35129 ft | 432 kts | 128° |
| 2026-04-22 19:40 | 55.83828 | 16.81357 | 35128 ft | 432 kts | 128° |
| 2026-04-22 19:41 | 55.79557 | 16.88869 | 35126 ft | 432 kts | 128° |
| 2026-04-22 19:41 | 55.75276 | 16.96354 | 35131 ft | 432 kts | 128° |
| 2026-04-22 19:42 | 55.71004 | 17.03765 | 35135 ft | 432 kts | 129° |
| 2026-04-22 19:42 | 55.66698 | 17.11229 | 35133 ft | 434 kts | 128° |
| 2026-04-22 19:43 | 55.58992 | 17.20126 | 34896 ft | 452 kts | 149° |
| 2026-04-22 19:43 | 55.56139 | 17.22429 | 34649 ft | 450 kts | 149° |
| 2026-04-22 19:43 | 55.53343 | 17.24672 | 34410 ft | 443 kts | 149° |
| 2026-04-22 19:44 | 55.50547 | 17.26911 | 34175 ft | 443 kts | 149° |
| 2026-04-22 19:44 | 55.47738 | 17.29168 | 33906 ft | 444 kts | 149° |
| 2026-04-22 19:44 | 55.44930 | 17.31421 | 33593 ft | 442 kts | 149° |
| 2026-04-22 19:44 | 55.42142 | 17.33652 | 33045 ft | 439 kts | 149° |
| 2026-04-22 19:45 | 55.39371 | 17.35872 | 32502 ft | 436 kts | 149° |
| 2026-04-22 19:45 | 55.36621 | 17.38074 | 31969 ft | 433 kts | 150° |
| 2026-04-22 19:45 | 55.33882 | 17.40264 | 31462 ft | 431 kts | 150° |
| 2026-04-22 19:45 | 55.31156 | 17.42435 | 30921 ft | 430 kts | 150° |
| 2026-04-22 19:46 | 55.28472 | 17.44564 | 30407 ft | 428 kts | 150° |
| 2026-04-22 19:46 | 55.25729 | 17.46739 | 29847 ft | 426 kts | 150° |
| 2026-04-22 19:46 | 55.23075 | 17.48844 | 29346 ft | 422 kts | 150° |
| 2026-04-22 19:46 | 55.20408 | 17.50956 | 28848 ft | 419 kts | 150° |
| 2026-04-22 19:47 | 55.17764 | 17.53020 | 28412 ft | 414 kts | 151° |
| 2026-04-22 19:47 | 55.15141 | 17.55041 | 27966 ft | 410 kts | 151° |
| 2026-04-22 19:47 | 55.13413 | 17.56363 | 27684 ft | 408 kts | 152° |
| 2026-04-22 19:47 | 55.09954 | 17.59006 | 27121 ft | 403 kts | 151° |
| 2026-04-22 19:48 | 55.07399 | 17.60957 | 26690 ft | 399 kts | 151° |
| 2026-04-22 19:48 | 55.04871 | 17.62891 | 26280 ft | 395 kts | 151° |
| 2026-04-22 19:48 | 55.02357 | 17.64812 | 25866 ft | 395 kts | 152° |
| 2026-04-22 19:48 | 54.99883 | 17.66716 | 25441 ft | 393 kts | 149° |
| 2026-04-22 19:49 | 54.97557 | 17.69089 | 25017 ft | 384 kts | 139° |
| 2026-04-22 19:49 | 54.95524 | 17.72030 | 24594 ft | 377 kts | 129° |
| 2026-04-22 19:49 | 54.93720 | 17.75306 | 24148 ft | 373 kts | 128° |
| 2026-04-22 19:49 | 54.91932 | 17.78573 | 23717 ft | 372 kts | 128° |
| 2026-04-22 19:50 | 54.90162 | 17.81813 | 23233 ft | 367 kts | 129° |
| 2026-04-22 19:50 | 54.88403 | 17.85008 | 22804 ft | 364 kts | 128° |
| 2026-04-22 19:50 | 54.86652 | 17.88172 | 22379 ft | 362 kts | 128° |
| 2026-04-22 19:50 | 54.84938 | 17.91263 | 21962 ft | 359 kts | 128° |
| 2026-04-22 19:51 | 54.83210 | 17.94376 | 21551 ft | 357 kts | 128° |
| 2026-04-22 19:51 | 54.81490 | 17.97473 | 21136 ft | 356 kts | 129° |
| 2026-04-22 19:51 | 54.79705 | 18.00449 | 20623 ft | 360 kts | 136° |
| 2026-04-22 19:51 | 54.77698 | 18.03141 | 19658 ft | 368 kts | 139° |
| 2026-04-22 19:52 | 54.75652 | 18.05813 | 18913 ft | 366 kts | 140° |
| 2026-04-22 19:52 | 54.73613 | 18.08435 | 18185 ft | 366 kts | 140° |
| 2026-04-22 19:52 | 54.71608 | 18.11020 | 17445 ft | 362 kts | 140° |
| 2026-04-22 19:52 | 54.69605 | 18.13604 | 16761 ft | 358 kts | 140° |
| 2026-04-22 19:53 | 54.67635 | 18.16225 | 16088 ft | 354 kts | 134° |
| 2026-04-22 19:53 | 54.65961 | 18.19247 | 15432 ft | 346 kts | 127° |
| 2026-04-22 19:53 | 54.64362 | 18.22333 | 14779 ft | 342 kts | 127° |
| 2026-04-22 19:53 | 54.62777 | 18.25382 | 14144 ft | 340 kts | 127° |
| 2026-04-22 19:54 | 54.61200 | 18.28409 | 13500 ft | 338 kts | 127° |
| 2026-04-22 19:54 | 54.59655 | 18.31361 | 12871 ft | 333 kts | 128° |
| 2026-04-22 19:54 | 54.58109 | 18.34304 | 12236 ft | 329 kts | 128° |
| 2026-04-22 19:54 | 54.56581 | 18.37207 | 11618 ft | 325 kts | 128° |
| 2026-04-22 19:55 | 54.55069 | 18.40082 | 11002 ft | 321 kts | 128° |
| 2026-04-22 19:55 | 54.53572 | 18.42919 | 10395 ft | 318 kts | 128° |
| 2026-04-22 19:55 | 54.52093 | 18.45714 | 9776 ft | 314 kts | 128° |
| 2026-04-22 19:55 | 54.50632 | 18.48473 | 9085 ft | 310 kts | 128° |
| 2026-04-22 19:56 | 54.49186 | 18.51210 | 8397 ft | 308 kts | 129° |
| 2026-04-22 19:56 | 54.47775 | 18.53885 | 7747 ft | 305 kts | 129° |
| 2026-04-22 19:56 | 54.46359 | 18.56570 | 7079 ft | 301 kts | 129° |
| 2026-04-22 19:56 | 54.44982 | 18.59172 | 6816 ft | 286 kts | 129° |
| 2026-04-22 19:57 | 54.43613 | 18.61755 | 6318 ft | 297 kts | 129° |
| 2026-04-22 19:57 | 54.42407 | 18.64575 | 5779 ft | 291 kts | 115° |
| 2026-04-22 19:57 | 54.41574 | 18.67701 | 5357 ft | 287 kts | 108° |
| 2026-04-22 19:57 | 54.40803 | 18.70796 | 5213 ft | 275 kts | 108° |
| 2026-04-22 19:58 | 54.40062 | 18.73735 | 5134 ft | 261 kts | 108° |
| 2026-04-22 19:58 | 54.39366 | 18.76483 | 5050 ft | 249 kts | 108° |
| 2026-04-22 19:58 | 54.38569 | 18.79084 | 4828 ft | 249 kts | 128° |
| 2026-04-22 19:58 | 54.37157 | 18.80779 | 4581 ft | 250 kts | 159° |
| 2026-04-22 19:59 | 54.35474 | 18.81280 | 4350 ft | 244 kts | 185° |
| 2026-04-22 20:00 | 54.31682 | 18.71044 | 3259 ft | 169 kts | 298° |
| 2026-04-22 20:00 | 54.32144 | 18.69199 | 3036 ft | 168 kts | 298° |
| 2026-04-22 20:01 | 54.32603 | 18.67361 | 2816 ft | 168 kts | 298° |
| 2026-04-22 20:01 | 54.33061 | 18.65526 | 2578 ft | 167 kts | 297° |
| 2026-04-22 20:01 | 54.33518 | 18.63696 | 2354 ft | 166 kts | 297° |
| 2026-04-22 20:01 | 54.33955 | 18.61937 | 2134 ft | 154 kts | 298° |
| 2026-04-22 20:02 | 54.34350 | 18.60341 | 1937 ft | 139 kts | 299° |
| 2026-04-22 20:02 | 54.34717 | 18.58870 | 1750 ft | 134 kts | 300° |
| 2026-04-22 20:02 | 54.35079 | 18.57423 | 1568 ft | 131 kts | 299° |
| 2026-04-22 20:02 | 54.35439 | 18.55989 | 1382 ft | 131 kts | 297° |
| 2026-04-22 20:03 | 54.35789 | 18.54555 | 1190 ft | 130 kts | 295° |
| 2026-04-22 20:03 | 54.36142 | 18.53129 | 1005 ft | 130 kts | 296° |
| 2026-04-22 20:03 | 54.36497 | 18.51701 | 844 ft | 132 kts | 294° |
| 2026-04-22 20:03 | 54.36858 | 18.50248 | 666 ft | 133 kts | 292° |
| 2026-04-22 20:04 | 54.37216 | 18.48805 | 504 ft | 130 kts | 292° |
| 2026-04-22 20:04 | 54.37518 | 18.47585 | 466 ft | 90 kts | 293° |
| 2026-04-22 20:04 | 54.37694 | 18.46872 | 454 ft | 40 kts | 293° |
| 2026-04-22 20:04 | 54.37790 | 18.46490 | 457 ft | 33 kts | 292° |
| 2026-04-22 20:05 | 54.37856 | 18.46221 | 458 ft | 20 kts | 293° |
| 2026-04-22 20:05 | 54.37916 | 18.46010 | 458 ft | 19 kts | 315° |
| 2026-04-22 20:05 | 54.37975 | 18.45880 | 455 ft | 12 kts | 311° |
| 2026-04-22 20:05 | 54.38032 | 18.45793 | 455 ft | 11 kts | 322° |
| 2026-04-22 20:06 | 54.38094 | 18.45713 | 454 ft | 11 kts | 324° |
| 2026-04-22 20:06 | 54.38150 | 18.45738 | 454 ft | 8 kts | 69° |
| 2026-04-22 20:06 | 54.38135 | 18.45820 | 455 ft | 6 kts | 114° |
| 2026-04-22 20:06 | 54.38123 | 18.45869 | 457 ft | 4 kts | 114° |
| 2026-04-22 20:07 | 54.38104 | 18.45941 | 458 ft | 9 kts | 113° |
| 2026-04-22 20:07 | 54.38095 | 18.46028 | 459 ft | 10 kts | 79° |
| 2026-04-22 20:07 | 54.38174 | 18.46128 | 460 ft | 15 kts | 62° |
| 2026-04-22 20:07 | 54.38149 | 18.46283 | 459 ft | 13 kts | 114° |
| 2026-04-22 20:08 | 54.38118 | 18.46394 | 458 ft | 6 kts | 131° |
| 2026-04-22 20:08 | 54.38081 | 18.46393 | 459 ft | 5 kts | 203° |
| 2026-04-22 20:08 | 54.38061 | 18.46378 | 459 ft | 1 kts | 203° |
| 2026-04-22 20:08 | 54.38058 | 18.46376 | 459 ft | 0 kts | 203° |